Time;durP1;ratioP1;P1;durP2;ratioP2;P2;SDS_P1;SDS_P2;PMS_P1;PMS_P2;Temp;Humidity;BMP_temperature;BMP_pressure;BME280_temperature;BME280_humidity;BME280_pressure;Samples;Min_cycle;Max_cycle;Signal;HPM_P1;HPM_P2
2021/09/17 00:01:16;;;;;;;0.40;0.30;;;;;;;;;;4846009;28;20198;-76
2021/09/17 00:03:39;;;;;;;0.27;0.27;;;;;;;;;;4857933;28;20193;-75
2021/09/17 00:06:01;;;;;;;0.20;0.20;;;;;;;;;;4849094;28;20257;-74
2021/09/17 00:08:24;;;;;;;0.30;0.30;;;;;;;;;;4845378;28;20268;-75
2021/09/17 00:10:47;;;;;;;0.30;0.30;;;;;;;;;;4845922;28;20256;-75
2021/09/17 00:13:11;;;;;;;0.20;0.20;;;17.60;40.10;;;;;;4855559;28;20650;-75
2021/09/17 00:15:34;;;;;;;0.20;0.20;;;;;;;;;;4848449;28;20237;-75
2021/09/17 00:17:57;;;;;;;0.10;0.10;;;;;;;;;;4848670;28;20682;-75
2021/09/17 00:20:20;;;;;;;0.20;0.20;;;;;;;;;;4847584;28;20194;-75
2021/09/17 00:22:43;;;;;;;0.30;0.30;;;17.50;39.90;;;;;;4845633;28;20194;-75
2021/09/17 00:25:07;;;;;;;0.23;0.23;;;17.50;39.80;;;;;;4847466;28;20210;-76
2021/09/17 00:27:30;;;;;;;0.27;0.27;;;;;;;;;;4847970;28;20253;-75
2021/09/17 00:29:53;;;;;;;0.20;0.20;;;17.30;38.80;;;;;;4847901;28;20186;-75
2021/09/17 00:32:16;;;;;;;0.20;0.20;;;;;;;;;;4847651;28;20193;-75
2021/09/17 00:34:39;;;;;;;0.30;0.30;;;;;;;;;;4845404;28;20179;-75
2021/09/17 00:37:02;;;;;;;0.20;0.20;;;;;;;;;;4842777;28;20191;-75
2021/09/17 00:39:24;;;;;;;0.20;0.20;;;;;;;;;;4850210;28;20763;-75
2021/09/17 00:41:47;;;;;;;0.30;0.30;;;;;;;;;;4839944;28;20187;-75
2021/09/17 00:44:10;;;;;;;0.10;0.10;;;;;;;;;;4846617;28;20186;-75
2021/09/17 00:46:34;;;;;;;0.20;0.20;;;17.50;38.60;;;;;;4847762;28;20241;-74
2021/09/17 00:48:57;;;;;;;0.20;0.20;;;;;;;;;;4863163;28;20320;-75
2021/09/17 00:51:19;;;;;;;0.20;0.20;;;;;;;;;;4844321;28;20190;-75
2021/09/17 00:53:42;;;;;;;0.10;0.10;;;;;;;;;;4851356;28;20252;-75
2021/09/17 00:56:06;;;;;;;0.10;0.10;;;17.50;38.80;;;;;;4850736;28;20190;-75
2021/09/17 00:58:29;;;;;;;0.10;0.10;;;17.50;38.70;;;;;;4845119;28;20228;-75
2021/09/17 01:00:52;;;;;;;0.10;0.10;;;;;;;;;;4844533;28;20186;-75
2021/09/17 01:03:16;;;;;;;0.10;0.10;;;17.50;38.60;;;;;;4854415;28;20276;-74
2021/09/17 01:05:39;;;;;;;0.10;0.10;;;;;;;;;;4842114;28;20178;-74
2021/09/17 01:08:02;;;;;;;0.10;0.10;;;17.50;38.30;;;;;;4843543;28;20222;-74
2021/09/17 01:10:25;;;;;;;0.20;0.20;;;17.50;38.50;;;;;;4846188;28;20187;-74
2021/09/17 01:12:49;;;;;;;0.10;0.10;;;17.50;38.60;;;;;;4848735;28;20562;-75
2021/09/17 01:15:13;;;;;;;0.03;0.03;;;17.50;38.90;;;;;;4848166;28;20203;-75
2021/09/17 01:17:38;;;;;;;0.10;0.10;;;17.50;39.10;;;;;;4840690;28;20202;-75
2021/09/17 01:20:02;;;;;;;0.10;0.10;;;17.50;39.00;;;;;;4847825;28;20220;-76
2021/09/17 01:22:27;;;;;;;0.10;0.10;;;17.50;38.80;;;;;;4847129;28;20605;-76
2021/09/17 01:24:49;;;;;;;0.10;0.10;;;;;;;;;;4846856;28;20210;-75
2021/09/17 01:27:12;;;;;;;0.10;0.10;;;;;;;;;;4844832;28;20217;-75
2021/09/17 01:29:35;;;;;;;0.00;0.00;;;;;;;;;;4845542;28;20194;-76
2021/09/17 01:31:58;;;;;;;0.10;0.10;;;;;;;;;;4844580;28;20189;-76
2021/09/17 01:34:22;;;;;;;0.10;0.10;;;17.50;39.60;;;;;;4846913;28;20244;-76
2021/09/17 01:36:45;;;;;;;0.10;0.10;;;;;;;;;;4843124;28;20191;-75
2021/09/17 01:39:09;;;;;;;0.10;0.10;;;17.50;40.20;;;;;;4845408;28;20195;-74
2021/09/17 01:41:32;;;;;;;0.10;0.10;;;;;;;;;;4849008;28;20669;-75
2021/09/17 01:43:55;;;;;;;0.20;0.20;;;;;;;;;;4848535;28;20194;-75
2021/09/17 01:46:18;;;;;;;0.10;0.10;;;;;;;;;;4844363;28;20203;-76
2021/09/17 01:48:40;;;;;;;0.20;0.20;;;;;;;;;;4847777;28;20231;-76
2021/09/17 01:51:03;;;;;;;0.10;0.10;;;;;;;;;;4843369;28;20191;-76
2021/09/17 01:53:26;;;;;;;0.20;0.20;;;;;;;;;;4852182;28;20248;-78
2021/09/17 01:55:50;;;;;;;0.10;0.10;;;17.40;43.20;;;;;;4844809;28;20190;-75
2021/09/17 01:58:13;;;;;;;0.20;0.20;;;;;;;;;;4844682;28;20245;-74
2021/09/17 02:00:35;;;;;;;0.70;0.70;;;;;;;;;;4843394;28;20194;-74
2021/09/17 02:02:58;;;;;;;0.00;0.00;;;;;;;;;;4846848;28;20234;-75
2021/09/17 02:05:21;;;;;;;0.20;0.20;;;;;;;;;;4844198;28;20245;-74
2021/09/17 02:07:43;;;;;;;0.20;0.20;;;;;;;;;;4861857;28;20210;-74
2021/09/17 02:10:08;;;;;;;0.17;0.17;;;16.40;44.60;;;;;;4848408;28;20194;-74
2021/09/17 02:12:32;;;;;;;0.13;0.13;;;16.70;44.20;;;;;;4844876;28;20652;-74
2021/09/17 02:14:55;;;;;;;0.20;0.20;;;;;;;;;;4842073;28;20243;-75
2021/09/17 02:17:18;;;;;;;0.20;0.20;;;;;;;;;;4846364;28;20260;-75
2021/09/17 02:19:41;;;;;;;0.20;0.20;;;;;;;;;;4844321;28;20249;-74
2021/09/17 02:22:03;;;;;;;0.20;0.20;;;;;;;;;;4844371;28;20187;-74
2021/09/17 02:24:26;;;;;;;0.20;0.20;;;;;;;;;;4842788;28;20747;-75
2021/09/17 02:26:49;;;;;;;0.10;0.10;;;;;;;;;;4843969;28;20277;-74
2021/09/17 02:29:13;;;;;;;0.10;0.10;;;16.40;41.60;;;;;;4844850;28;20256;-74
2021/09/17 02:31:35;;;;;;;0.10;0.10;;;;;;;;;;4847846;28;20237;-74
2021/09/17 02:33:58;;;;;;;0.00;0.00;;;;;;;;;;4848863;28;20191;-76
2021/09/17 02:36:21;;;;;;;0.10;0.10;;;;;;;;;;4851235;28;20723;-75
2021/09/17 02:38:44;;;;;;;0.20;0.20;;;;;;;;;;4854404;28;20241;-74
2021/09/17 02:41:06;;;;;;;0.13;0.13;;;;;;;;;;4846728;28;20253;-74
2021/09/17 02:43:29;;;;;;;0.10;0.10;;;;;;;;;;4849024;28;20248;-74
2021/09/17 02:45:53;;;;;;;0.20;0.20;;;16.20;42.60;;;;;;4848255;28;20191;-75
2021/09/17 02:48:16;;;;;;;0.03;0.03;;;;;;;;;;4848772;28;20206;-75
2021/09/17 02:50:39;;;;;;;0.00;0.00;;;;;;;;;;4851382;28;20596;-74
2021/09/17 02:53:04;;;;;;;0.00;0.00;;;;;;;;;;4851214;28;20745;-74
2021/09/17 02:55:27;;;;;;;0.00;0.00;;;;;;;;;;4847468;28;20600;-75
2021/09/17 02:57:53;;;;;;;0.00;0.00;;;;;;;;;;4859387;28;20249;-74
2021/09/17 03:00:16;;;;;;;0.03;0.03;;;16.00;41.40;;;;;;4859549;28;20194;-75
2021/09/17 03:02:40;;;;;;;0.10;0.10;;;15.90;41.10;;;;;;4863643;28;20323;-74
2021/09/17 03:05:03;;;;;;;0.00;0.00;;;;;;;;;;4865295;28;20574;-74
2021/09/17 03:07:26;;;;;;;0.00;0.00;;;;;;;;;;4849168;28;20240;-74
2021/09/17 03:09:48;;;;;;;0.10;0.10;;;;;;;;;;4852568;28;20232;-74
2021/09/17 03:12:11;;;;;;;0.00;0.00;;;;;;;;;;4848695;28;20186;-75
2021/09/17 03:14:34;;;;;;;0.10;0.10;;;;;;;;;;4848101;28;20264;-74
2021/09/17 03:16:57;;;;;;;0.00;0.00;;;;;;;;;;4848169;28;20187;-75
2021/09/17 03:19:21;;;;;;;0.00;0.00;;;15.90;40.10;;;;;;4848367;28;20716;-74
2021/09/17 03:21:44;;;;;;;0.10;0.10;;;;;;;;;;4850436;28;20193;-75
2021/09/17 03:24:06;;;;;;;0.10;0.10;;;;;;;;;;4847579;28;20186;-74
2021/09/17 03:26:29;;;;;;;0.10;0.10;;;;;;;;;;4847168;28;20230;-74
2021/09/17 03:28:52;;;;;;;0.10;0.10;;;;;;;;;;4850329;28;20765;-75
2021/09/17 03:31:15;;;;;;;0.00;0.00;;;;;;;;;;4852151;28;20279;-74
2021/09/17 03:33:38;;;;;;;0.00;0.00;;;;;;;;;;4846466;28;20186;-75
2021/09/17 03:36:01;;;;;;;0.00;0.00;;;15.80;40.50;;;;;;4852364;28;20190;-74
2021/09/17 03:38:24;;;;;;;0.10;0.10;;;;;;;;;;4849808;28;20248;-75
2021/09/17 03:40:48;;;;;;;0.10;0.10;;;;;;;;;;4845414;28;20522;-74
2021/09/17 03:43:11;;;;;;;0.10;0.10;;;;;;;;;;4846518;28;20194;-74
2021/09/17 03:45:35;;;;;;;0.03;0.03;;;15.80;40.70;;;;;;4854515;28;20228;-74
2021/09/17 03:47:58;;;;;;;0.10;0.10;;;;;;;;;;4850754;28;20698;-75
2021/09/17 03:50:21;;;;;;;0.07;0.07;;;;;;;;;;4848913;28;20226;-74
2021/09/17 03:52:45;;;;;;;0.10;0.10;;;15.80;41.60;;;;;;4849630;28;20933;-75
2021/09/17 03:55:09;;;;;;;0.10;0.10;;;15.70;42.00;;;;;;4850217;28;20190;-74
2021/09/17 03:57:31;;;;;;;0.00;0.00;;;;;;;;;;4847769;28;20191;-75
2021/09/17 03:59:54;;;;;;;0.10;0.10;;;;;;;;;;4852330;28;20229;-74
2021/09/17 04:02:17;;;;;;;0.10;0.10;;;;;;;;;;4848160;28;20222;-75
2021/09/17 04:04:40;;;;;;;0.20;0.20;;;;;;;;;;4851789;28;20182;-74
2021/09/17 04:07:03;;;;;;;0.10;0.10;;;;;;;;;;4855239;28;20209;-74
2021/09/17 04:09:27;;;;;;;0.00;0.00;;;15.50;43.40;;;;;;4846118;28;20609;-74
2021/09/17 04:11:50;;;;;;;0.10;0.10;;;;;;;;;;4848859;28;20187;-74
2021/09/17 04:14:13;;;;;;;0.00;0.00;;;;;;;;;;4852329;28;20251;-74
2021/09/17 04:16:36;;;;;;;0.00;0.00;;;;;;;;;;4857459;28;20194;-75
2021/09/17 04:18:58;;;;;;;0.00;0.00;;;;;;;;;;4843640;28;20206;-74
2021/09/17 04:21:21;;;;;;;0.00;0.00;;;;;;;;;;4840156;28;20190;-74
2021/09/17 04:23:44;;;;;;;0.00;0.00;;;;;;;;;;4844866;28;20240;-74
2021/09/17 04:26:07;;;;;;;0.00;0.00;;;15.30;42.10;;;;;;4849151;28;20225;-74
2021/09/17 04:28:30;;;;;;;0.00;0.00;;;;;;;;;;4841641;28;20256;-75
2021/09/17 04:30:53;;;;;;;0.00;0.00;;;;;;;;;;4849293;28;20707;-74
2021/09/17 04:33:16;;;;;;;0.00;0.00;;;;;;;;;;4846616;28;20244;-74
2021/09/17 04:35:39;;;;;;;0.00;0.00;;;;;;;;;;4849413;28;20193;-75
2021/09/17 04:38:01;;;;;;;0.00;0.00;;;;;;;;;;4845463;28;20209;-75
2021/09/17 04:40:25;;;;;;;0.20;0.20;;;15.30;41.50;;;;;;4843940;28;20645;-74
2021/09/17 04:42:49;;;;;;;0.20;0.20;;;15.30;41.50;;;;;;4842714;28;20248;-76
2021/09/17 04:45:12;;;;;;;0.20;0.20;;;15.30;41.80;;;;;;4841991;28;20278;-74
2021/09/17 04:47:35;;;;;;;0.00;0.00;;;;;;;;;;4840505;28;20186;-74
2021/09/17 04:49:58;;;;;;;0.00;0.00;;;;;;;;;;4849596;28;20253;-74
2021/09/17 04:52:22;;;;;;;0.00;0.00;;;15.10;43.50;;;;;;4848964;28;20190;-75
2021/09/17 04:54:45;;;;;;;0.20;0.20;;;;;;;;;;4852727;28;20190;-75
2021/09/17 04:57:08;;;;;;;0.07;0.07;;;;;;;;;;4857705;28;20201;-75
2021/09/17 04:59:32;;;;;;;0.10;0.10;;;15.00;45.40;;;;;;4858212;28;20209;-74
2021/09/17 05:01:56;;;;;;;0.13;0.13;;;14.90;45.30;;;;;;4851878;28;20691;-74
2021/09/17 05:04:19;;;;;;;0.13;0.13;;;15.10;45.20;;;;;;4843440;28;20199;-76
2021/09/17 05:06:42;;;;;;;0.20;0.20;;;15.00;44.90;;;;;;4855662;28;20713;-74
2021/09/17 05:09:04;;;;;;;0.30;0.30;;;14.60;44.70;;;;;;4855061;28;20193;-73
2021/09/17 05:11:27;;;;;;;0.03;0.03;;;14.80;44.80;;;;;;4849419;28;20191;-75
2021/09/17 05:13:50;;;;;;;0.10;0.10;;;14.60;45.20;;;;;;4848474;28;20221;-76
2021/09/17 05:16:14;;;;;;;0.20;0.10;;;14.30;44.70;;;;;;4838889;28;20191;-74
2021/09/17 05:18:37;;;;;;;0.00;0.00;;;;;;;;;;4838562;28;20292;-74
2021/09/17 05:21:00;;;;;;;0.00;0.00;;;14.70;44.70;;;;;;4851493;28;20213;-74
2021/09/17 05:23:22;;;;;;;0.00;0.00;;;;;;;;;;4851631;28;20285;-75
2021/09/17 05:25:45;;;;;;;0.13;0.13;;;14.30;44.50;;;;;;4836385;28;20273;-76
2021/09/17 05:28:07;;;;;;;0.10;0.10;;;14.50;44.40;;;;;;4838041;28;20187;-76
2021/09/17 05:30:30;;;;;;;0.00;0.00;;;14.20;44.30;;;;;;4837838;28;20755;-74
2021/09/17 05:32:54;;;;;;;0.20;0.20;;;13.40;43.70;;;;;;4837786;28;20239;-75
2021/09/17 05:35:17;;;;;;;0.10;0.10;;;14.30;44.30;;;;;;4838029;28;20190;-74
2021/09/17 05:37:39;;;;;;;0.20;0.20;;;14.30;43.60;;;;;;4837673;28;20230;-74
2021/09/17 05:40:02;;;;;;;0.10;0.10;;;;;;;;;;4837840;28;20210;-73
2021/09/17 05:42:25;;;;;;;0.10;0.10;;;14.30;43.40;;;;;;4837710;28;20273;-74
2021/09/17 05:44:48;;;;;;;0.00;0.00;;;14.40;42.90;;;;;;4838225;28;20221;-72
2021/09/17 05:47:10;;;;;;;0.10;0.10;;;13.50;42.40;;;;;;4838108;28;20241;-74
2021/09/17 05:49:34;;;;;;;0.10;0.10;;;14.20;42.70;;;;;;4837996;28;20188;-74
2021/09/17 05:51:57;;;;;;;0.10;0.10;;;13.90;42.00;;;;;;4837593;28;20654;-74
2021/09/17 05:54:20;;;;;;;0.10;0.10;;;14.10;42.00;;;;;;4837414;28;20194;-74
2021/09/17 05:56:43;;;;;;;0.00;0.00;;;;;;;;;;4837713;28;20175;-74
2021/09/17 05:59:05;;;;;;;0.00;0.00;;;;;;;;;;4840719;28;20251;-74
2021/09/17 06:01:28;;;;;;;0.00;0.00;;;14.60;42.40;;;;;;4853939;28;20283;-75
2021/09/17 06:03:50;;;;;;;0.10;0.10;;;14.40;42.20;;;;;;4853134;28;20186;-75
2021/09/17 06:06:17;;;;;;;0.00;0.00;;;14.30;42.40;;;;;;4840576;28;20241;-74
2021/09/17 06:08:40;;;;;;;0.00;0.00;;;14.30;42.30;;;;;;4841275;28;20696;-75
2021/09/17 06:11:03;;;;;;;0.00;0.00;;;14.40;42.10;;;;;;4840056;28;20202;-75
2021/09/17 06:13:25;;;;;;;0.00;0.00;;;14.40;42.40;;;;;;4823797;28;20198;-74
2021/09/17 06:15:49;;;;;;;0.00;0.00;;;14.50;42.80;;;;;;4853556;28;20182;-76
2021/09/17 06:18:11;;;;;;;0.00;0.00;;;14.40;43.10;;;;;;4860474;28;20776;-76
2021/09/17 06:20:34;;;;;;;0.00;0.00;;;14.80;43.30;;;;;;4860301;28;20221;-74
2021/09/17 06:22:57;;;;;;;0.10;0.10;;;14.40;43.50;;;;;;4860211;28;20232;-76
2021/09/17 06:25:21;;;;;;;0.03;0.03;;;14.40;43.70;;;;;;4858780;28;20195;-74
2021/09/17 06:27:44;;;;;;;0.00;0.00;;;14.50;43.40;;;;;;4860078;28;20177;-74
2021/09/17 06:30:07;;;;;;;0.00;0.00;;;14.70;43.60;;;;;;4860269;28;20229;-75
2021/09/17 06:32:31;;;;;;;0.00;0.00;;;14.20;43.50;;;;;;4860235;28;20264;-77
2021/09/17 06:34:53;;;;;;;0.00;0.00;;;14.30;43.70;;;;;;4859870;28;20193;-75
2021/09/17 06:37:16;;;;;;;0.10;0.10;;;14.20;43.70;;;;;;4859727;28;20186;-75
2021/09/17 06:39:40;;;;;;;0.00;0.00;;;14.40;44.20;;;;;;4875102;28;20207;-73
2021/09/17 06:42:04;;;;;;;0.00;0.00;;;;;;;;;;4860041;28;20186;-74
2021/09/17 06:44:26;;;;;;;0.10;0.10;;;;;;;;;;4859842;28;20186;-75
2021/09/17 06:46:49;;;;;;;0.00;0.00;;;14.60;43.80;;;;;;4859806;28;20190;-74
2021/09/17 06:49:12;;;;;;;0.00;0.00;;;14.40;43.40;;;;;;4859839;28;20236;-75
2021/09/17 06:51:35;;;;;;;0.10;0.10;;;14.40;43.50;;;;;;4859684;28;20190;-74
2021/09/17 06:53:57;;;;;;;0.00;0.00;;;14.50;43.30;;;;;;4859566;28;20233;-75
2021/09/17 06:56:21;;;;;;;0.10;0.10;;;14.50;43.90;;;;;;4859729;28;20190;-74
2021/09/17 06:58:44;;;;;;;0.00;0.00;;;14.40;43.90;;;;;;4859474;28;20187;-76
2021/09/17 07:01:07;;;;;;;0.13;0.13;;;14.20;43.80;;;;;;4856908;28;20214;-75
2021/09/17 07:03:29;;;;;;;0.10;0.10;;;14.50;44.10;;;;;;4859550;28;20181;-75
2021/09/17 07:05:52;;;;;;;0.10;0.10;;;;;;;;;;4859237;28;20671;-75
2021/09/17 07:08:15;;;;;;;0.03;0.03;;;14.70;44.20;;;;;;4859636;28;20240;-74
2021/09/17 07:10:40;;;;;;;0.10;0.10;;;14.80;44.40;;;;;;4859538;28;20190;-75
2021/09/17 07:13:04;;;;;;;0.00;0.00;;;14.50;44.60;;;;;;4858206;28;20186;-73
2021/09/17 07:15:27;;;;;;;0.00;0.00;;;13.80;44.30;;;;;;4859373;28;20236;-74
2021/09/17 07:17:50;;;;;;;0.07;0.07;;;15.30;45.00;;;;;;4858155;28;20236;-74
2021/09/17 07:20:13;;;;;;;0.10;0.10;;;14.70;44.90;;;;;;4858987;28;20209;-75
2021/09/17 07:22:36;;;;;;;0.10;0.10;;;14.90;45.10;;;;;;4859320;28;20178;-75
2021/09/17 07:24:59;;;;;;;0.00;0.00;;;;;;;;;;4859120;28;20285;-72
2021/09/17 07:27:21;;;;;;;0.00;0.00;;;15.00;45.40;;;;;;4858883;28;20280;-75
2021/09/17 07:29:45;;;;;;;0.00;0.00;;;14.70;45.30;;;;;;4858904;28;20201;-75
2021/09/17 07:32:09;;;;;;;0.03;0.03;;;14.80;45.50;;;;;;4858852;28;20189;-73
2021/09/17 07:34:32;;;;;;;0.00;0.00;;;14.60;45.30;;;;;;4859070;28;20185;-75
2021/09/17 07:36:54;;;;;;;0.00;0.00;;;14.30;45.30;;;;;;4858865;28;20198;-74
2021/09/17 07:39:17;;;;;;;0.03;0.03;;;;;;;;;;4859071;28;20190;-74
2021/09/17 07:41:40;;;;;;;0.00;0.00;;;14.50;45.50;;;;;;4858699;28;20225;-74
2021/09/17 07:44:03;;;;;;;0.00;0.00;;;;;;;;;;4858850;28;20244;-74
2021/09/17 07:46:27;;;;;;;0.10;0.10;;;14.60;45.60;;;;;;4858323;28;20186;-75
2021/09/17 07:48:49;;;;;;;0.00;0.00;;;15.10;45.80;;;;;;4858433;28;20236;-74
2021/09/17 07:51:12;;;;;;;0.00;0.00;;;15.00;45.40;;;;;;4858580;28;20248;-74
2021/09/17 07:53:34;;;;;;;0.00;0.00;;;15.40;45.80;;;;;;4858619;28;20209;-74
2021/09/17 07:55:57;;;;;;;0.10;0.10;;;14.60;45.20;;;;;;4858208;28;20236;-74
2021/09/17 07:58:21;;;;;;;0.00;0.00;;;14.60;45.30;;;;;;4852277;28;20195;-74
2021/09/17 08:00:44;;;;;;;0.00;0.00;;;;;;;;;;4853013;28;20372;-74
2021/09/17 08:03:08;;;;;;;0.10;0.10;;;15.00;46.20;;;;;;4855911;28;20735;-75
2021/09/17 08:05:30;;;;;;;0.00;0.00;;;;;;;;;;4852589;28;20197;-74
2021/09/17 08:07:54;;;;;;;0.07;0.07;;;15.30;46.00;;;;;;4858052;28;20186;-75
2021/09/17 08:10:16;;;;;;;0.00;0.00;;;15.00;46.00;;;;;;4856951;28;20235;-75
2021/09/17 08:12:39;;;;;;;0.00;0.00;;;;;;;;;;4856670;28;20185;-75
2021/09/17 08:15:02;;;;;;;0.10;0.10;;;15.40;46.00;;;;;;4873373;28;20671;-76
2021/09/17 08:17:24;;;;;;;0.07;0.07;;;15.30;46.40;;;;;;4875390;28;20185;-77
2021/09/17 08:19:49;;;;;;;0.00;0.00;;;15.40;46.80;;;;;;4876918;28;20594;-75
2021/09/17 08:22:12;;;;;;;0.00;0.00;;;;;;;;;;4876250;28;20209;-74
2021/09/17 08:24:34;;;;;;;0.10;0.10;;;15.70;46.80;;;;;;4876215;28;20247;-75
2021/09/17 08:27:00;;;;;;;0.00;0.00;;;15.50;46.80;;;;;;4876438;28;20283;-76
2021/09/17 08:29:22;;;;;;;0.10;0.10;;;15.40;47.00;;;;;;4876588;28;20208;-74
2021/09/17 08:31:49;;;;;;;0.00;0.00;;;15.70;47.00;;;;;;4876187;28;20197;-74
2021/09/17 08:34:11;;;;;;;0.00;0.00;;;15.80;47.00;;;;;;4876610;28;20232;-76
2021/09/17 08:36:36;;;;;;;0.00;0.00;;;15.70;47.10;;;;;;4876259;28;20235;-73
2021/09/17 08:39:00;;;;;;;0.10;0.10;;;15.60;47.00;;;;;;4876643;28;20177;-72
2021/09/17 08:41:23;;;;;;;0.00;0.00;;;15.70;47.30;;;;;;4876043;28;20209;-73
2021/09/17 08:43:49;;;;;;;0.00;0.00;;;15.60;47.30;;;;;;4876328;28;20235;-73
2021/09/17 08:46:13;;;;;;;0.07;0.07;;;15.90;47.00;;;;;;4875759;28;20231;-73
2021/09/17 08:48:37;;;;;;;0.00;0.00;;;15.90;47.20;;;;;;4876484;28;20181;-73
2021/09/17 08:51:01;;;;;;;0.00;0.00;;;;;;;;;;4875683;28;20254;-74
2021/09/17 08:53:26;;;;;;;0.00;0.00;;;16.10;47.60;;;;;;4859410;28;20186;-74
2021/09/17 08:55:49;;;;;;;0.00;0.00;;;;;;;;;;4856854;28;20205;-73
2021/09/17 08:58:11;;;;;;;0.10;0.10;;;;;;;;;;4856549;28;20232;-74
2021/09/17 09:00:41;;;;;;;0.10;0.10;;;16.00;47.70;;;;;;4855210;28;20712;-73
2021/09/17 09:03:04;;;;;;;0.10;0.10;;;15.90;47.60;;;;;;4856134;28;20757;-74
2021/09/17 09:05:27;;;;;;;0.00;0.00;;;16.40;47.80;;;;;;4857158;28;20185;-74
2021/09/17 09:07:50;;;;;;;0.07;0.07;;;15.90;47.60;;;;;;4856054;28;20247;-74
2021/09/17 09:10:16;;;;;;;0.00;0.00;;;16.50;47.90;;;;;;4856871;28;20655;-74
2021/09/17 09:12:43;;;;;;;0.00;0.00;;;16.30;48.10;;;;;;4856150;28;20185;-73
2021/09/17 09:15:14;;;;;;;0.00;0.00;;;16.10;48.00;;;;;;4856821;28;20678;-73
2021/09/17 09:17:36;;;;;;;0.00;0.00;;;16.10;48.20;;;;;;4856286;28;20186;-74
2021/09/17 09:19:59;;;;;;;0.03;0.03;;;;;;;;;;4856560;28;20564;-73
2021/09/17 09:22:22;;;;;;;0.10;0.10;;;16.10;48.10;;;;;;4856214;28;20624;-74
2021/09/17 09:24:45;;;;;;;0.10;0.10;;;16.20;48.50;;;;;;4856395;28;20259;-74
2021/09/17 09:27:12;;;;;;;0.00;0.00;;;15.80;47.80;;;;;;4856371;28;20225;-74
2021/09/17 09:29:35;;;;;;;0.00;0.00;;;16.20;47.80;;;;;;4856163;28;20214;-73
2021/09/17 09:32:00;;;;;;;0.00;0.00;;;16.60;48.30;;;;;;4854851;28;20187;-73
2021/09/17 09:34:24;;;;;;;0.00;0.00;;;16.60;48.10;;;;;;4856637;28;20186;-74
2021/09/17 09:36:46;;;;;;;0.00;0.00;;;16.70;48.40;;;;;;4856200;28;20284;-74
2021/09/17 09:39:09;;;;;;;0.00;0.00;;;17.40;48.80;;;;;;4856098;28;20244;-73
2021/09/17 09:41:34;;;;;;;0.00;0.00;;;17.40;48.80;;;;;;4855426;28;20840;-74
2021/09/17 09:44:00;;;;;;;0.00;0.00;;;17.40;48.90;;;;;;4856228;28;20301;-74
2021/09/17 09:46:25;;;;;;;0.00;0.00;;;17.50;48.90;;;;;;4856497;28;20186;-74
2021/09/17 09:49:13;;;;;;;0.00;0.00;;;18.10;49.50;;;;;;4856287;28;20244;-74
2021/09/17 09:51:38;;;;;;;0.00;0.00;;;17.40;49.20;;;;;;4854888;28;20190;-74
2021/09/17 09:54:03;;;;;;;0.00;0.00;;;17.90;49.50;;;;;;4856146;28;20252;-74
2021/09/17 09:56:26;;;;;;;0.00;0.00;;;;;;;;;;4856357;28;20186;-74
2021/09/17 09:58:50;;;;;;;0.00;0.00;;;18.70;49.80;;;;;;4854591;28;20185;-74
2021/09/17 10:01:14;;;;;;;0.00;0.00;;;18.80;49.90;;;;;;4852183;28;20194;-74
2021/09/17 10:03:38;;;;;;;0.00;0.00;;;18.60;50.00;;;;;;4852954;28;20634;-74
2021/09/17 10:06:01;;;;;;;0.00;0.00;;;18.30;49.90;;;;;;4856437;28;20200;-75
2021/09/17 10:08:23;;;;;;;0.00;0.00;;;19.30;50.40;;;;;;4856080;28;20647;-74
2021/09/17 10:10:46;;;;;;;0.00;0.00;;;18.70;50.30;;;;;;4855564;28;20216;-74
2021/09/17 10:13:09;;;;;;;0.00;0.00;;;19.10;50.70;;;;;;4855193;28;20241;-73
2021/09/17 10:15:35;;;;;;;0.10;0.10;;;19.00;50.90;;;;;;4856241;28;20182;-74
2021/09/17 10:17:59;;;;;;;0.00;0.00;;;19.00;50.60;;;;;;4856029;28;20182;-74
2021/09/17 10:20:22;;;;;;;0.00;0.00;;;;;;;;;;4872319;28;20193;-74
2021/09/17 10:22:45;;;;;;;0.00;0.00;;;19.00;50.70;;;;;;4861838;28;20259;-74
2021/09/17 10:25:14;;;;;;;0.00;0.00;;;18.50;50.30;;;;;;4855951;28;20649;-74
2021/09/17 10:27:37;;;;;;;0.00;0.00;;;19.70;50.60;;;;;;4856176;28;20194;-74
2021/09/17 10:30:02;;;;;;;0.10;0.10;;;19.20;50.60;;;;;;4855773;28;20234;-73
2021/09/17 10:32:46;;;;;;;0.00;0.00;;;19.80;51.30;;;;;;4855122;28;20237;-74
2021/09/17 10:35:13;;;;;;;0.00;0.00;;;19.70;51.20;;;;;;4851572;28;20198;-74
2021/09/17 10:38:09;;;;;;;0.00;0.00;;;20.30;51.50;;;;;;4856137;28;20197;-74
2021/09/17 10:40:40;;;;;;;0.00;0.00;;;20.30;51.70;;;;;;4856292;28;20224;-74
2021/09/17 10:43:26;;;;;;;0.00;0.00;;;19.80;51.40;;;;;;4855380;28;20227;-74
2021/09/17 10:45:51;;;;;;;0.00;0.00;;;20.20;51.50;;;;;;4855820;28;20233;-74
2021/09/17 10:48:15;;;;;;;0.00;0.00;;;19.90;51.60;;;;;;4855951;28;20656;-74
2021/09/17 10:50:41;;;;;;;0.00;0.00;;;19.80;51.50;;;;;;4856376;28;20256;-73
2021/09/17 10:53:04;;;;;;;0.00;0.00;;;20.30;51.70;;;;;;4859929;28;20201;-73
2021/09/17 10:56:02;;;;;;;0.00;0.00;;;20.00;51.50;;;;;;4858831;28;20191;-74
2021/09/17 10:58:27;;;;;;;0.03;0.03;;;19.40;51.60;;;;;;4859686;28;20206;-74
2021/09/17 11:00:53;;;;;;;0.00;0.00;;;18.90;51.50;;;;;;4856558;28;20178;-73
2021/09/17 11:03:59;;;;;;;0.00;0.00;;;19.70;51.80;;;;;;4858339;28;20234;-74
2021/09/17 11:06:29;;;;;;;0.10;0.10;;;19.30;51.60;;;;;;4858473;28;20228;-74
2021/09/17 11:08:53;;;;;;;0.00;0.00;;;19.00;51.50;;;;;;4859171;28;20236;-74
2021/09/17 11:11:23;;;;;;;0.00;0.00;;;18.70;51.30;;;;;;4858707;28;20268;-73
2021/09/17 11:13:47;;;;;;;0.00;0.00;;;18.70;51.20;;;;;;4858950;28;20213;-73
2021/09/17 11:16:15;;;;;;;0.00;0.00;;;18.50;51.30;;;;;;4850764;28;20206;-74
2021/09/17 11:18:38;;;;;;;0.00;0.00;;;17.90;50.60;;;;;;4855535;28;20240;-74
2021/09/17 11:21:16;;;;;;;0.00;0.00;;;18.30;50.70;;;;;;4854722;28;20242;-73
2021/09/17 11:23:40;;;;;;;0.00;0.00;;;18.40;50.50;;;;;;4839888;28;20273;-75
2021/09/17 11:26:03;;;;;;;0.10;0.10;;;19.10;51.20;;;;;;4856322;28;20265;-74
2021/09/17 11:28:29;;;;;;;0.07;0.07;;;19.30;51.30;;;;;;4858383;28;20190;-74
2021/09/17 11:30:52;;;;;;;0.10;0.10;;;19.60;51.60;;;;;;4859191;28;20222;-74
2021/09/17 11:33:19;;;;;;;0.07;0.07;;;19.80;51.70;;;;;;4858426;28;20621;-74
2021/09/17 11:35:41;;;;;;;0.00;0.00;;;20.10;51.80;;;;;;4859255;28;20194;-73
2021/09/17 11:38:07;;;;;;;0.00;0.00;;;20.00;52.00;;;;;;4857098;28;20187;-74
2021/09/17 11:40:31;;;;;;;0.00;0.00;;;20.50;52.20;;;;;;4858817;28;20550;-73
2021/09/17 11:42:55;;;;;;;0.00;0.00;;;19.80;52.00;;;;;;4857264;28;20223;-74
2021/09/17 11:45:21;;;;;;;0.00;0.00;;;20.30;52.40;;;;;;4858514;28;20206;-74
2021/09/17 11:47:49;;;;;;;0.10;0.10;;;19.70;52.10;;;;;;4857320;28;20183;-73
2021/09/17 11:50:14;;;;;;;0.00;0.00;;;19.80;52.00;;;;;;4858215;28;20248;-74
2021/09/17 11:52:40;;;;;;;0.00;0.00;;;20.30;52.20;;;;;;4858583;28;20260;-74
2021/09/17 11:55:06;;;;;;;0.00;0.00;;;19.70;52.30;;;;;;4858322;28;21057;-75
2021/09/17 11:57:32;;;;;;;0.00;0.00;;;19.90;52.10;;;;;;4857521;28;20248;-74
2021/09/17 11:59:54;;;;;;;0.00;0.00;;;;;;;;;;4853789;28;20190;-73
2021/09/17 12:02:19;;;;;;;0.00;0.00;;;20.20;52.20;;;;;;4854835;28;20226;-74
2021/09/17 12:04:43;;;;;;;0.00;0.00;;;20.70;52.50;;;;;;4856134;28;20188;-77
2021/09/17 12:07:06;;;;;;;0.00;0.00;;;;;;;;;;4857210;28;20183;-74
2021/09/17 12:09:30;;;;;;;0.10;0.10;;;21.20;52.80;;;;;;4858082;28;20180;-74
2021/09/17 12:11:57;;;;;;;0.00;0.00;;;22.10;53.30;;;;;;4857054;28;20234;-74
2021/09/17 12:14:25;;;;;;;0.10;0.10;;;22.60;53.80;;;;;;4860413;28;20197;-73
2021/09/17 12:16:48;;;;;;;0.00;0.00;;;24.00;54.60;;;;;;4857048;28;20202;-74
2021/09/17 12:19:11;;;;;;;0.00;0.00;;;;;;;;;;4857814;28;20308;-78
2021/09/17 12:21:35;;;;;;;0.00;0.00;;;25.10;41.30;;;;;;4872271;28;20218;-76
2021/09/17 12:23:57;;;;;;;0.10;0.10;;;25.80;42.00;;;;;;4857615;28;20212;-81
2021/09/17 12:26:22;;;;;;;0.10;0.10;;;25.60;42.30;;;;;;4856847;28;20220;-78
2021/09/17 12:28:48;;;;;;;0.10;0.10;;;25.50;42.70;;;;;;4857364;28;20666;-75
2021/09/17 12:31:28;;;;;;;0.00;0.00;;;25.70;42.50;;;;;;4857693;28;20930;-81
2021/09/17 12:34:05;;;;;;;0.10;0.10;;;24.10;57.00;;;;;;4856414;28;20190;-80
2021/09/17 12:36:30;;;;;;;0.00;0.00;;;23.80;56.60;;;;;;4856709;28;20200;-78
2021/09/17 12:39:01;;;;;;;0.10;0.10;;;23.90;56.60;;;;;;4857298;28;20196;-78
2021/09/17 12:41:23;;;;;;;0.00;0.00;;;23.10;56.10;;;;;;4857144;28;20654;-76
2021/09/17 12:43:47;;;;;;;0.00;0.00;;;22.90;56.00;;;;;;4856000;28;20223;-79
2021/09/17 12:46:13;;;;;;;0.00;0.00;;;22.20;55.70;;;;;;4856678;28;20232;-78
2021/09/17 12:48:39;;;;;;;0.10;0.10;;;21.60;55.10;;;;;;4857282;28;20244;-82
2021/09/17 12:51:02;;;;;;;0.00;0.00;;;21.50;54.80;;;;;;4857119;28;20186;-80
2021/09/17 12:53:26;;;;;;;0.00;0.00;;;;;;;;;;4856625;28;20253;-77
2021/09/17 12:56:00;;;;;;;0.00;0.00;;;21.30;54.90;;;;;;4856610;28;20616;-80
2021/09/17 12:58:24;;;;;;;0.10;0.10;;;21.10;54.30;;;;;;4856629;28;20181;-80
2021/09/17 13:00:48;;;;;;;0.00;0.00;;;20.30;54.00;;;;;;4853786;28;20890;-78
2021/09/17 13:03:15;;;;;;;0.00;0.00;;;20.30;53.70;;;;;;4856217;28;20234;-80
2021/09/17 13:05:40;;;;;;;0.10;0.10;;;20.20;53.60;;;;;;4856272;28;20704;-78
2021/09/17 13:08:04;;;;;;;0.10;0.10;;;20.30;53.30;;;;;;4856024;28;20676;-76